Puvirnituq, Canada
Current Conditions -  °F | °C
As of 5:23 AM on Tuesday 21 Oct 2014 (Local Time) from CYPX Reporting Station
Haze Haze  
Wind Chill: 24°   Ceiling: 700
Heat Index: 32°   Visibility: 1.2mi
Dew Point: 32°   Wind: 10mph
Humidity: 100%   Direction: 280°W
Pressure: 30.04"   Gusts: NA
Location:  60.03°N, 77.28°W
Report Text: CYPX 210923Z AUTO 28009KT 1 1/4SM BR BKN007 OVC017 00/00 A3004 RMK SLP175
Loading
Personal Weather Stations






























Interactive Weather Map
Tropical Storm Tracking
New forecast layout! Learn more

10-Day Weather Forecast

Advertisements
Track Severe Weather on mobile